createdAt,value
2017-09-19T00:02:15.444Z,75.51
2017-09-19T00:04:43.324Z,75.43
2017-09-19T00:07:10.926Z,75.39
2017-09-19T00:09:38.626Z,75.50
2017-09-19T00:12:06.211Z,75.53
2017-09-19T00:14:33.840Z,75.80
2017-09-19T00:17:01.424Z,75.94
2017-09-19T00:19:29.013Z,75.79
2017-09-19T00:21:56.630Z,75.84
2017-09-19T00:24:24.238Z,75.82
2017-09-19T00:26:51.825Z,75.75
2017-09-19T00:29:19.452Z,75.53
2017-09-19T00:31:47.043Z,75.27
2017-09-19T00:34:14.628Z,75.46
2017-09-19T00:36:42.668Z,75.54
2017-09-19T00:39:10.254Z,75.58
2017-09-19T00:41:37.864Z,75.53
2017-09-19T00:44:05.492Z,75.82
2017-09-19T00:46:33.679Z,75.58
2017-09-19T00:49:01.272Z,75.84
2017-09-19T00:51:28.889Z,76.15
2017-09-19T00:53:56.796Z,75.81
2017-09-19T00:56:24.444Z,76.09
2017-09-19T00:58:52.059Z,75.99
2017-09-19T01:01:19.651Z,76.02
2017-09-19T01:03:47.270Z,76.69
2017-09-19T01:06:14.882Z,77.27
2017-09-19T01:08:42.511Z,76.92
2017-09-19T01:11:10.095Z,77.01
2017-09-19T01:13:37.689Z,77.67
2017-09-19T01:16:05.294Z,77.60
2017-09-19T01:18:32.887Z,78.70
2017-09-19T01:21:00.513Z,78.89
2017-09-19T01:23:28.440Z,78.63
2017-09-19T01:25:56.028Z,78.53
2017-09-19T01:28:23.662Z,78.68
2017-09-19T01:30:51.298Z,78.16
2017-09-19T01:33:18.927Z,78.10
2017-09-19T01:35:46.551Z,78.50
2017-09-19T01:38:14.143Z,78.33
2017-09-19T01:40:42.099Z,78.23
2017-09-19T01:43:09.683Z,77.94
2017-09-19T01:45:37.313Z,77.87
2017-09-19T01:48:04.919Z,77.55
2017-09-19T01:50:32.525Z,77.32
2017-09-19T01:53:00.169Z,77.59
2017-09-19T01:55:27.755Z,77.78
2017-09-19T01:57:55.388Z,78.18
2017-09-19T02:00:22.974Z,78.20
2017-09-19T02:02:50.553Z,78.28
2017-09-19T02:05:18.176Z,78.45
2017-09-19T02:07:45.768Z,77.96
2017-09-19T02:10:13.392Z,77.76
2017-09-19T02:12:40.986Z,76.93
2017-09-19T02:15:08.587Z,77.44
2017-09-19T02:17:36.208Z,77.60
2017-09-19T02:20:03.803Z,77.73
2017-09-19T02:22:31.427Z,77.64
2017-09-19T02:24:59.024Z,77.08
2017-09-19T02:27:26.638Z,76.79
2017-09-19T02:29:54.271Z,76.31
2017-09-19T02:32:22.102Z,77.12
2017-09-19T02:34:50.056Z,77.31
2017-09-19T02:37:17.664Z,77.79
2017-09-19T02:39:45.252Z,77.70
2017-09-19T02:42:12.859Z,77.80
2017-09-19T02:44:40.444Z,77.88
2017-09-19T02:47:08.080Z,78.01
2017-09-19T02:49:35.734Z,77.95
2017-09-19T02:52:03.329Z,78.43
2017-09-19T02:54:31.197Z,78.22
2017-09-19T02:56:58.780Z,78.17
2017-09-19T02:59:26.691Z,77.78
2017-09-19T03:01:54.319Z,77.23
2017-09-19T03:04:21.924Z,77.29
2017-09-19T03:06:49.523Z,77.31
2017-09-19T03:09:17.104Z,77.73
2017-09-19T03:11:44.744Z,78.06
2017-09-19T03:14:12.327Z,77.53
2017-09-19T03:16:39.939Z,77.42
2017-09-19T03:19:07.564Z,77.23
2017-09-19T03:21:35.161Z,77.00
2017-09-19T03:24:02.787Z,76.89
2017-09-19T03:26:30.701Z,77.09
2017-09-19T03:28:58.551Z,77.02
2017-09-19T03:31:26.179Z,76.86
2017-09-19T03:33:53.771Z,76.22
2017-09-19T03:36:21.396Z,76.36
2017-09-19T03:38:48.975Z,76.39
2017-09-19T03:41:16.572Z,75.75
2017-09-19T03:43:44.218Z,76.28
2017-09-19T03:46:11.804Z,76.98
2017-09-19T03:48:39.436Z,76.94
2017-09-19T03:51:07.029Z,77.00
2017-09-19T03:53:34.674Z,76.97
2017-09-19T03:56:02.318Z,76.76
2017-09-19T03:58:29.907Z,76.73
2017-09-19T04:00:57.555Z,76.50
2017-09-19T04:03:25.141Z,76.67
2017-09-19T04:05:52.756Z,77.12
2017-09-19T04:08:20.373Z,76.99
2017-09-19T04:10:47.971Z,76.89
2017-09-19T04:13:15.603Z,77.17
2017-09-19T04:15:43.218Z,77.70
2017-09-19T04:18:11.092Z,77.84
2017-09-19T04:20:38.707Z,78.13
2017-09-19T04:23:06.315Z,78.61
2017-09-19T04:25:33.966Z,78.49
2017-09-19T04:28:01.564Z,78.85
2017-09-19T04:30:29.140Z,78.95
2017-09-19T04:32:56.751Z,78.67
2017-09-19T04:35:24.331Z,78.87
2017-09-19T04:37:51.963Z,78.66
2017-09-19T04:40:19.605Z,78.43
2017-09-19T04:42:47.188Z,78.74
2017-09-19T04:45:14.807Z,78.71
2017-09-19T04:47:42.381Z,78.75
2017-09-19T04:50:10.020Z,78.52
2017-09-19T04:52:37.601Z,78.21
2017-09-19T04:55:05.213Z,78.17
2017-09-19T04:57:32.842Z,78.85
2017-09-19T05:00:00.747Z,78.85
2017-09-19T05:02:28.368Z,79.35
2017-09-19T05:04:55.948Z,79.36
2017-09-19T05:07:23.537Z,79.62
2017-09-19T05:09:51.149Z,80.24
2017-09-19T05:12:18.719Z,80.71
2017-09-19T05:14:46.623Z,80.59
2017-09-19T05:17:14.196Z,80.50
2017-09-19T05:19:41.791Z,80.76
2017-09-19T05:22:09.713Z,81.05
2017-09-19T05:24:37.292Z,80.61
2017-09-19T05:27:04.922Z,80.54
2017-09-19T05:29:32.500Z,80.34
2017-09-19T05:32:00.364Z,80.79
2017-09-19T05:34:27.976Z,80.40
2017-09-19T05:36:55.568Z,79.81
2017-09-19T05:39:23.186Z,79.31
2017-09-19T05:41:50.764Z,79.15
2017-09-19T05:44:18.342Z,79.11
2017-09-19T05:46:45.972Z,78.81
2017-09-19T05:49:13.789Z,78.96
2017-09-19T05:51:41.407Z,79.19
2017-09-19T05:54:09.004Z,79.95
2017-09-19T05:56:36.594Z,80.00
2017-09-19T05:59:04.204Z,79.56
2017-09-19T06:01:31.800Z,79.40
2017-09-19T06:03:59.421Z,79.86
2017-09-19T06:06:27.006Z,79.66
2017-09-19T06:09:06.373Z,79.47
2017-09-19T06:11:33.960Z,79.41
2017-09-19T06:14:01.560Z,79.31
2017-09-19T06:16:29.165Z,79.11
2017-09-19T06:18:56.736Z,79.36
2017-09-19T06:21:24.390Z,79.19
2017-09-19T06:23:51.994Z,78.91
2017-09-19T06:26:19.576Z,78.74
2017-09-19T06:28:47.186Z,78.86
2017-09-19T06:31:14.785Z,78.76
2017-09-19T06:33:42.411Z,79.06
2017-09-19T06:36:10.033Z,78.65
2017-09-19T06:38:37.606Z,78.48
2017-09-19T06:41:05.372Z,78.17
2017-09-19T06:43:32.952Z,78.35
2017-09-19T06:46:00.576Z,78.62
2017-09-19T06:48:28.165Z,78.33
2017-09-19T06:50:55.796Z,78.70
2017-09-19T06:53:23.397Z,78.34
2017-09-19T06:55:51.001Z,77.99
2017-09-19T06:58:18.604Z,77.25
2017-09-19T07:00:46.239Z,77.04
2017-09-19T07:03:13.836Z,76.39
2017-09-19T07:05:41.435Z,75.31
2017-09-19T07:08:09.061Z,74.31
2017-09-19T07:10:36.643Z,73.97
2017-09-19T07:13:04.486Z,74.67
2017-09-19T07:15:32.097Z,74.25
2017-09-19T07:17:59.681Z,73.30
2017-09-19T07:20:27.299Z,73.15
2017-09-19T07:22:54.884Z,73.20
2017-09-19T07:25:22.801Z,73.37
2017-09-19T07:27:50.411Z,73.14
2017-09-19T07:30:18.026Z,72.68
2017-09-19T07:32:45.646Z,72.97
2017-09-19T07:35:13.233Z,73.66
2017-09-19T07:37:40.849Z,73.25
2017-09-19T07:40:08.517Z,73.96
2017-09-19T07:42:36.098Z,74.07
2017-09-19T07:45:03.713Z,74.43
2017-09-19T07:47:31.384Z,74.46
2017-09-19T07:49:58.976Z,74.40
2017-09-19T07:52:26.893Z,74.03
2017-09-19T07:54:54.488Z,73.86
2017-09-19T07:57:22.103Z,73.83
2017-09-19T07:59:49.710Z,73.32
2017-09-19T08:02:17.293Z,72.87
2017-09-19T08:04:44.904Z,72.42
2017-09-19T08:07:12.779Z,72.12
2017-09-19T08:09:40.428Z,71.13
2017-09-19T08:12:08.010Z,71.28
2017-09-19T08:14:35.598Z,70.57
2017-09-19T08:17:03.465Z,71.42
2017-09-19T08:19:31.072Z,70.96
2017-09-19T08:21:58.686Z,70.29
2017-09-19T08:24:26.290Z,70.58
2017-09-19T08:26:53.883Z,71.02
2017-09-19T08:29:21.507Z,71.50
2017-09-19T08:31:49.090Z,70.81
2017-09-19T08:34:16.719Z,70.65
2017-09-19T08:36:44.623Z,69.94
2017-09-19T08:39:12.195Z,69.11
2017-09-19T08:41:39.816Z,68.46
2017-09-19T08:46:41.214Z,66.30
2017-09-19T08:49:08.803Z,66.57
2017-09-19T08:51:36.400Z,66.32
2017-09-19T08:54:04.015Z,64.68
2017-09-19T08:56:31.619Z,64.18
2017-09-19T08:58:59.583Z,63.68
2017-09-19T09:01:27.167Z,63.02
2017-09-19T09:03:54.802Z,62.54
2017-09-19T09:06:22.414Z,60.97
2017-09-19T09:08:50.012Z,60.55
2017-09-19T09:11:17.627Z,58.61
2017-09-19T09:13:45.357Z,57.75
2017-09-19T09:16:13.275Z,56.55
2017-09-19T09:18:40.948Z,58.09
2017-09-19T09:21:08.529Z,58.25
2017-09-19T09:23:36.153Z,58.18
2017-09-19T09:26:03.738Z,57.88
2017-09-19T09:28:31.320Z,57.29
2017-09-19T09:30:58.940Z,58.03
2017-09-19T09:33:26.519Z,58.75
2017-09-19T09:35:54.280Z,58.58
2017-09-19T09:38:21.868Z,59.76
2017-09-19T09:40:49.442Z,60.52
2017-09-19T09:43:17.048Z,60.18
2017-09-19T09:45:44.636Z,60.63
2017-09-19T09:48:12.249Z,60.74
2017-09-19T09:50:39.831Z,61.09
2017-09-19T09:53:07.415Z,60.94
2017-09-19T09:55:35.032Z,61.54
2017-09-19T09:58:02.627Z,61.24
2017-09-19T10:00:30.248Z,61.80
2017-09-19T10:02:57.820Z,60.36
2017-09-19T10:05:25.446Z,59.98
2017-09-19T10:07:53.063Z,60.09
2017-09-19T10:10:20.640Z,59.97
2017-09-19T10:12:48.300Z,59.31
2017-09-19T10:15:15.905Z,59.77
2017-09-19T10:17:43.487Z,59.94
2017-09-19T10:20:11.101Z,58.88
2017-09-19T10:22:38.964Z,58.19
2017-09-19T10:25:06.594Z,57.22
2017-09-19T10:27:34.184Z,56.31
2017-09-19T10:30:01.764Z,54.12
2017-09-19T10:32:29.372Z,52.12
2017-09-19T10:34:56.957Z,50.46
2017-09-19T10:37:24.563Z,48.76
2017-09-19T10:39:52.176Z,48.44
2017-09-19T10:42:19.752Z,49.34
2017-09-19T10:44:47.364Z,47.58
2017-09-19T10:47:14.948Z,49.27
2017-09-19T10:49:42.569Z,50.18
2017-09-19T10:52:10.163Z,49.98
2017-09-19T10:54:37.744Z,49.85
2017-09-19T10:57:05.343Z,49.82
2017-09-19T10:59:32.938Z,50.14
2017-09-19T11:02:00.555Z,50.89
2017-09-19T11:04:28.138Z,53.45
2017-09-19T11:06:55.733Z,54.19
2017-09-19T11:09:23.340Z,54.52
2017-09-19T11:11:51.196Z,54.44
2017-09-19T11:14:18.831Z,54.20
2017-09-19T11:16:46.417Z,53.89
2017-09-19T11:19:13.995Z,53.80
2017-09-19T11:21:41.639Z,54.55
2017-09-19T11:24:09.242Z,52.80
2017-09-19T11:26:36.876Z,52.42
2017-09-19T11:29:04.460Z,52.91
2017-09-19T11:31:32.112Z,53.48
2017-09-19T11:33:59.729Z,52.91
2017-09-19T11:36:27.306Z,52.10
2017-09-19T11:38:54.922Z,49.97
2017-09-19T11:41:22.506Z,47.37
2017-09-19T11:43:50.089Z,45.87
2017-09-19T11:46:17.701Z,46.13
2017-09-19T11:48:45.284Z,44.19
2017-09-19T11:51:12.912Z,45.89
2017-09-19T11:53:40.514Z,47.80
2017-09-19T11:56:08.116Z,47.41
2017-09-19T11:58:35.718Z,47.53
2017-09-19T12:01:03.323Z,46.70
2017-09-19T12:03:30.937Z,41.63
2017-09-19T12:05:58.504Z,41.21
2017-09-19T12:08:26.085Z,43.66
2017-09-19T12:10:53.851Z,40.06
2017-09-19T12:13:21.512Z,41.71
2017-09-19T12:15:49.416Z,44.49
2017-09-19T12:18:17.361Z,45.32
2017-09-19T12:20:45.105Z,42.47
2017-09-19T12:23:13.707Z,37.13
2017-09-19T12:25:41.698Z,35.01
2017-09-19T12:28:09.432Z,36.01
2017-09-19T12:30:37.098Z,37.87
2017-09-19T12:33:04.716Z,39.63
2017-09-19T12:35:32.504Z,39.04
2017-09-19T12:38:00.580Z,39.70
2017-09-19T12:40:29.391Z,40.46
2017-09-19T12:42:57.302Z,41.27
2017-09-19T12:45:25.655Z,42.14
2017-09-19T12:47:53.814Z,44.67
2017-09-19T12:50:21.514Z,45.52
2017-09-19T12:52:49.512Z,47.01
2017-09-19T12:55:17.878Z,47.74
2017-09-19T12:57:45.931Z,47.93
2017-09-19T13:00:13.623Z,48.39
2017-09-19T13:02:41.312Z,48.14
2017-09-19T13:05:09.002Z,46.93
2017-09-19T13:07:36.596Z,48.11
2017-09-19T13:10:04.511Z,48.72
2017-09-19T13:12:34.371Z,49.38
2017-09-19T13:15:02.478Z,48.63
2017-09-19T13:17:30.242Z,49.45
2017-09-19T13:19:58.174Z,49.99
2017-09-19T13:22:25.778Z,50.34
2017-09-19T13:24:53.693Z,50.73
2017-09-19T13:27:21.282Z,50.30
2017-09-19T13:29:48.907Z,50.04
2017-09-19T13:32:28.344Z,50.63
2017-09-19T13:34:55.953Z,50.14
2017-09-19T13:37:23.531Z,48.07
2017-09-19T13:39:51.109Z,49.04
2017-09-19T13:42:18.715Z,49.37
2017-09-19T13:44:46.302Z,49.74
2017-09-19T13:47:13.954Z,50.57
2017-09-19T13:49:41.568Z,51.44
2017-09-19T13:52:09.147Z,52.13
2017-09-19T13:54:36.759Z,52.58
2017-09-19T13:57:04.340Z,52.43
2017-09-19T13:59:32.036Z,52.27
2017-09-19T14:01:59.904Z,52.90
2017-09-19T14:04:28.342Z,53.12
2017-09-19T14:06:55.937Z,53.80
2017-09-19T14:09:23.580Z,52.54
2017-09-19T14:11:51.215Z,53.10
2017-09-19T14:14:18.791Z,50.76
2017-09-19T14:16:46.368Z,51.29
2017-09-19T14:19:14.005Z,51.80
2017-09-19T14:21:41.592Z,51.72
2017-09-19T14:24:09.214Z,52.08
2017-09-19T14:26:36.798Z,52.62
2017-09-19T14:29:04.464Z,52.61
2017-09-19T14:31:32.084Z,52.95
2017-09-19T14:34:02.023Z,52.71
2017-09-19T14:36:29.783Z,51.74
2017-09-19T14:38:57.422Z,51.70
2017-09-19T14:41:25.024Z,51.48
2017-09-19T14:43:52.636Z,52.56
2017-09-19T14:46:20.215Z,53.11
2017-09-19T14:48:48.061Z,53.37
2017-09-19T14:51:15.684Z,54.35
2017-09-19T14:53:43.309Z,55.16
2017-09-19T14:56:10.962Z,55.40
2017-09-19T14:58:39.275Z,56.00
2017-09-19T15:01:06.942Z,56.37
2017-09-19T15:03:34.866Z,55.51
2017-09-19T15:06:02.440Z,55.97
2017-09-19T15:08:30.010Z,55.50
2017-09-19T15:10:57.615Z,55.18
2017-09-19T15:13:25.205Z,55.04
2017-09-19T15:15:52.820Z,55.92
2017-09-19T15:18:20.390Z,55.93
2017-09-19T15:20:47.995Z,55.77
2017-09-19T15:23:15.863Z,55.80
2017-09-19T15:25:43.452Z,55.59
2017-09-19T15:28:11.114Z,55.49
2017-09-19T15:30:38.696Z,55.14
2017-09-19T15:33:06.299Z,55.72
2017-09-19T15:35:33.934Z,55.73
2017-09-19T15:38:01.571Z,56.13
2017-09-19T15:40:29.249Z,56.52
2017-09-19T15:42:56.949Z,56.67
2017-09-19T15:45:24.540Z,57.05
2017-09-19T15:47:52.144Z,57.67
2017-09-19T15:50:19.752Z,57.73
2017-09-19T15:52:47.732Z,57.99
2017-09-19T15:55:15.344Z,58.21
2017-09-19T15:57:43.018Z,58.97
2017-09-19T16:00:10.646Z,58.93
2017-09-19T16:02:38.287Z,58.47
2017-09-19T16:05:05.976Z,58.43
2017-09-19T16:07:33.588Z,58.49
2017-09-19T16:10:01.180Z,58.98
2017-09-19T16:12:28.803Z,58.80
2017-09-19T16:14:56.395Z,59.07
2017-09-19T16:17:24.339Z,59.29
2017-09-19T16:19:51.906Z,59.17
2017-09-19T16:22:19.546Z,59.63
2017-09-19T16:24:47.165Z,60.23
2017-09-19T16:27:14.762Z,60.29
2017-09-19T16:29:42.685Z,60.55
2017-09-19T16:32:10.261Z,60.92
2017-09-19T16:34:37.849Z,61.09
2017-09-19T16:37:05.487Z,61.66
2017-09-19T16:39:33.096Z,61.61
2017-09-19T16:42:00.723Z,62.29
2017-09-19T16:44:28.326Z,62.48
2017-09-19T16:46:55.927Z,62.90
2017-09-19T16:49:23.562Z,62.32
2017-09-19T16:51:51.182Z,61.97
2017-09-19T16:54:18.809Z,62.25
2017-09-19T16:56:46.408Z,62.73
2017-09-19T16:59:14.012Z,62.85
2017-09-19T17:01:41.690Z,62.74
2017-09-19T17:04:09.288Z,62.83
2017-09-19T17:06:36.915Z,63.04
2017-09-19T17:09:04.586Z,63.42
2017-09-19T17:11:32.182Z,63.55
2017-09-19T17:13:59.790Z,62.99
2017-09-19T17:16:27.412Z,62.89
2017-09-19T17:18:55.056Z,63.31
2017-09-19T17:21:22.668Z,63.80
2017-09-19T17:23:50.249Z,63.98
2017-09-19T17:26:17.851Z,63.97
2017-09-19T17:28:45.434Z,64.21
2017-09-19T17:31:13.071Z,64.42
2017-09-19T17:33:40.674Z,64.07
2017-09-19T17:36:08.273Z,64.22
2017-09-19T17:38:35.899Z,63.56
2017-09-19T17:41:03.490Z,63.75
2017-09-19T17:43:31.127Z,63.88
2017-09-19T17:45:58.733Z,63.81
2017-09-19T17:48:26.330Z,63.58
2017-09-19T17:50:53.931Z,64.31
2017-09-19T17:53:21.525Z,64.45
2017-09-19T17:55:49.444Z,64.17
2017-09-19T17:58:17.073Z,63.88
2017-09-19T18:00:44.657Z,64.45
2017-09-19T18:03:12.294Z,64.39
2017-09-19T18:05:39.895Z,65.00
2017-09-19T18:08:07.517Z,65.41
2017-09-19T18:10:35.098Z,65.66
2017-09-19T18:13:02.688Z,65.66
2017-09-19T18:15:30.292Z,65.78
2017-09-19T18:17:57.871Z,66.18
2017-09-19T18:20:25.867Z,66.18
2017-09-19T18:22:53.462Z,66.28
2017-09-19T18:25:21.052Z,66.50
2017-09-19T18:27:48.659Z,66.49
2017-09-19T18:30:16.620Z,66.41
2017-09-19T18:32:44.236Z,65.98
2017-09-19T18:35:11.941Z,66.04
2017-09-19T18:37:39.620Z,66.53
2017-09-19T18:40:07.278Z,66.52
2017-09-19T18:42:34.856Z,66.93
2017-09-19T18:45:02.477Z,67.24
2017-09-19T18:47:30.062Z,67.42
2017-09-19T18:49:57.664Z,67.46
2017-09-19T18:52:25.271Z,67.54
2017-09-19T18:54:52.852Z,68.04
2017-09-19T18:57:20.477Z,68.09
2017-09-19T18:59:48.474Z,67.78
2017-09-19T19:02:16.056Z,67.69
2017-09-19T19:04:43.685Z,67.96
2017-09-19T19:07:11.268Z,68.26
2017-09-19T19:09:39.229Z,68.19
2017-09-19T19:12:07.129Z,68.36
2017-09-19T19:14:35.066Z,68.41
2017-09-19T19:17:03.032Z,68.72
2017-09-19T19:19:30.631Z,68.69
2017-09-19T19:21:58.278Z,68.71
2017-09-19T19:24:26.131Z,68.98
2017-09-19T19:26:53.726Z,69.08
2017-09-19T19:29:21.339Z,69.17
2017-09-19T19:31:48.957Z,69.51
2017-09-19T19:34:16.595Z,69.15
2017-09-19T19:36:44.203Z,69.00
2017-09-19T19:39:11.781Z,69.42
2017-09-19T19:41:39.389Z,69.61
2017-09-19T19:44:06.988Z,69.82
2017-09-19T19:46:34.612Z,69.95
2017-09-19T19:49:02.196Z,70.04
2017-09-19T19:51:29.790Z,70.10
2017-09-19T19:53:57.439Z,70.68
2017-09-19T19:56:25.347Z,71.32
2017-09-19T19:58:52.972Z,71.28
2017-09-19T20:01:20.559Z,71.41
2017-09-19T20:03:48.226Z,71.46
2017-09-19T20:06:15.879Z,71.76
2017-09-19T20:08:43.484Z,71.94
2017-09-19T20:11:11.096Z,72.21
2017-09-19T20:13:38.672Z,72.13
2017-09-19T20:16:06.265Z,72.20
2017-09-19T20:18:33.877Z,72.05
2017-09-19T20:21:01.455Z,72.27
2017-09-19T20:23:29.324Z,72.20
2017-09-19T20:25:56.903Z,72.29
2017-09-19T20:28:24.500Z,72.05
2017-09-19T20:30:52.115Z,72.35
2017-09-19T20:33:19.702Z,71.86
2017-09-19T20:35:47.315Z,72.04
2017-09-19T20:38:14.920Z,72.01
2017-09-19T20:40:42.558Z,72.06
2017-09-19T20:43:10.173Z,72.26
2017-09-19T20:45:37.751Z,72.32
2017-09-19T20:48:05.390Z,72.13
2017-09-19T20:50:33.250Z,72.43
2017-09-19T20:53:00.948Z,72.71
2017-09-19T20:55:28.803Z,72.56
2017-09-19T20:57:56.576Z,72.75
2017-09-19T21:00:24.209Z,72.50
2017-09-19T21:02:51.260Z,72.73
2017-09-19T21:05:24.596Z,72.50
2017-09-19T21:07:57.751Z,73.16
2017-09-19T21:10:31.922Z,73.01
2017-09-19T21:13:05.392Z,73.33
2017-09-19T21:15:38.588Z,73.48
2017-09-19T21:18:11.648Z,74.44
2017-09-19T21:20:38.779Z,74.60
2017-09-19T21:23:07.266Z,74.80
2017-09-19T21:25:34.883Z,74.70
2017-09-19T21:28:02.741Z,74.32
2017-09-19T21:30:30.331Z,74.35
2017-09-19T21:32:58.951Z,74.57
2017-09-19T21:35:26.880Z,74.99
2017-09-19T21:37:54.492Z,75.33
2017-09-19T21:40:22.414Z,75.11
2017-09-19T21:42:50.271Z,75.13
2017-09-19T21:45:17.854Z,75.54
2017-09-19T21:47:45.824Z,75.71
2017-09-19T21:50:13.444Z,75.47
2017-09-19T21:52:41.048Z,75.82
2017-09-19T21:55:09.758Z,76.35
2017-09-19T21:57:40.432Z,76.76
2017-09-19T22:00:08.033Z,76.68
2017-09-19T22:02:36.352Z,76.69
2017-09-19T22:05:03.967Z,76.88
2017-09-19T22:07:31.579Z,76.87
2017-09-19T22:09:59.159Z,77.08
2017-09-19T22:12:26.744Z,77.43
2017-09-19T22:14:54.359Z,77.53
2017-09-19T22:17:22.268Z,77.67
2017-09-19T22:19:49.847Z,77.74
2017-09-19T22:22:17.455Z,77.69
2017-09-19T22:24:45.035Z,77.45
2017-09-19T22:27:12.648Z,77.47
2017-09-19T22:29:40.224Z,77.35
2017-09-19T22:32:07.811Z,77.13
2017-09-19T22:34:35.424Z,76.94
2017-09-19T22:37:03.036Z,77.06
2017-09-19T22:39:30.661Z,77.26
2017-09-19T22:41:58.244Z,77.65
2017-09-19T22:44:25.827Z,77.47
2017-09-19T22:46:53.452Z,77.84
2017-09-19T22:49:21.048Z,77.70
2017-09-19T22:51:48.672Z,77.55
2017-09-19T22:54:16.260Z,77.20
2017-09-19T22:56:43.836Z,77.19
2017-09-19T22:59:11.447Z,77.03
2017-09-19T23:01:39.037Z,76.76
2017-09-19T23:04:06.651Z,76.88
2017-09-19T23:06:34.974Z,76.86
2017-09-19T23:09:02.559Z,76.80
2017-09-19T23:11:30.464Z,76.88
2017-09-19T23:13:58.040Z,76.73
2017-09-19T23:16:25.670Z,76.77
2017-09-19T23:18:53.247Z,76.88
2017-09-19T23:21:20.825Z,76.87
2017-09-19T23:23:48.434Z,76.48
2017-09-19T23:26:16.226Z,76.64
2017-09-19T23:28:43.833Z,76.83
2017-09-19T23:31:11.409Z,76.81
2017-09-19T23:33:38.997Z,77.05
2017-09-19T23:36:06.599Z,77.01
2017-09-19T23:38:34.179Z,76.73
2017-09-19T23:41:01.808Z,76.86
2017-09-19T23:43:29.390Z,76.72
2017-09-19T23:45:56.976Z,76.72
2017-09-19T23:48:24.590Z,76.64
2017-09-19T23:50:52.444Z,76.89
2017-09-19T23:53:20.073Z,77.03
2017-09-19T23:55:47.691Z,76.96
2017-09-19T23:58:15.278Z,76.95
